Time;durP1;ratioP1;P1;durP2;ratioP2;P2;SDS_P1;SDS_P2;PMS_P1;PMS_P2;Temp;Humidity;BMP_temperature;BMP_pressure;BME280_temperature;BME280_humidity;BME280_pressure;Samples;Min_cycle;Max_cycle;Signal;HPM_P1;HPM_P2
2022/06/06 00:01:53;;;;;;;9.33;6.57;;;;;;;23.01;57.35;99638.44;4146253;28;20639;-73
2022/06/06 00:03:55;;;;;;;8.27;6.13;;;;;;;22.99;57.87;99634.31;4148084;28;20235;-73
2022/06/06 00:05:57;;;;;;;7.00;5.93;;;;;;;23.18;57.23;99643.88;4141642;28;20222;-73
2022/06/06 00:07:59;;;;;;;7.40;5.77;;;;;;;23.34;56.76;99653.06;4151951;28;20233;-73
2022/06/06 00:10:03;;;;;;;7.80;5.67;;;;;;;23.00;58.09;99646.81;4145888;28;20783;-73
2022/06/06 00:12:06;;;;;;;9.10;5.83;;;;;;;23.28;57.50;99631.53;4147266;28;20244;-73
2022/06/06 00:14:09;;;;;;;6.37;5.63;;;;;;;24.17;55.34;99630.72;4130714;28;20233;-74
2022/06/06 00:16:11;;;;;;;6.37;5.73;;;;;;;23.99;55.40;99644.56;4165679;28;21051;-73
2022/06/06 00:18:16;;;;;;;7.20;5.47;;;;;;;23.93;56.08;99639.06;4151563;28;20234;-73
2022/06/06 00:20:18;;;;;;;6.83;5.50;;;;;;;24.68;53.96;99634.03;4147081;28;20824;-73
2022/06/06 00:22:19;;;;;;;6.60;5.40;;;;;;;24.16;55.18;99642.66;4147268;28;20852;-73
2022/06/06 00:24:21;;;;;;;8.63;5.70;;;;;;;24.48;54.19;99640.06;4149198;28;20315;-73
2022/06/06 00:26:23;;;;;;;6.87;6.10;;;;;;;24.45;54.04;99650.63;4148355;28;20236;-73
2022/06/06 00:28:25;;;;;;;7.10;6.13;;;;;;;24.10;55.08;99646.34;4146073;28;20285;-73
2022/06/06 00:30:26;;;;;;;7.53;5.70;;;;;;;22.99;57.43;99647.88;4150554;28;20236;-73
2022/06/06 00:34:48;;;;;;;8.00;6.00;;;;;;;24.09;54.88;99636.56;4124711;28;20295;-73
2022/06/06 00:36:50;;;;;;;7.40;6.67;;;;;;;23.86;55.73;99637.63;4132564;28;20234;-73
2022/06/06 00:38:52;;;;;;;7.83;7.00;;;;;;;23.73;55.92;99644.22;4115847;28;20874;-73
2022/06/06 00:40:54;;;;;;;8.43;7.43;;;;;;;24.25;54.42;99643.06;4151107;28;20228;-73
2022/06/06 00:42:56;;;;;;;10.93;7.93;;;;;;;24.24;54.61;99644.94;4129365;28;20246;-73
2022/06/06 00:45:21;;;;;;;8.90;7.60;;;;;;;24.85;53.39;99644.84;4132905;28;20293;-73
2022/06/06 00:47:28;;;;;;;9.63;8.23;;;;;;;23.25;57.49;99645.59;4132594;28;20238;-73
2022/06/06 00:50:02;;;;;;;10.07;7.07;;;;;;;24.47;54.26;99634.88;4127786;28;20225;-73
2022/06/06 00:52:09;;;;;;;7.63;6.60;;;;;;;23.92;55.27;99647.47;4142572;28;20678;-73
2022/06/06 00:54:11;;;;;;;7.77;6.80;;;;;;;23.79;54.82;99645.09;4150942;28;20236;-73
2022/06/06 00:56:21;;;;;;;8.60;6.67;;;;;;;23.13;57.03;99649.22;4145462;28;20302;-73
2022/06/06 00:58:25;;;;;;;8.37;6.27;;;;;;;22.25;59.50;99646.69;4147060;28;20282;-73
2022/06/06 01:00:27;;;;;;;7.33;6.27;;;;;;;21.62;61.77;99644.72;4141280;28;20302;-73
2022/06/06 01:02:29;;;;;;;11.47;6.10;;;;;;;23.71;56.39;99622.75;4148956;28;20717;-73
2022/06/06 01:04:33;;;;;;;7.37;6.07;;;;;;;24.38;54.56;99636.41;4148783;28;20236;-73
2022/06/06 01:06:39;;;;;;;6.30;5.70;;;;;;;23.58;56.81;99633.94;4148121;28;20264;-73
2022/06/06 01:08:43;;;;;;;8.50;6.03;;;;;;;22.52;59.47;99632.59;4136161;28;20238;-73
2022/06/06 01:10:45;;;;;;;5.83;5.23;;;;;;;22.86;58.69;99623.75;4130216;28;20238;-73
2022/06/06 01:12:50;;;;;;;9.37;5.83;;;;;;;23.57;56.20;99630.41;4138781;28;20667;-73
2022/06/06 01:14:57;;;;;;;6.55;5.30;;;;;;;24.25;55.00;99630.28;4127990;28;20234;-73
2022/06/06 01:17:33;;;;;;;7.43;5.87;;;;;;;22.49;58.56;99630.41;4133252;28;20298;-74
2022/06/06 01:19:47;;;;;;;7.23;5.57;;;;;;;23.79;55.99;99616.06;4127005;28;20284;-73
2022/06/06 01:22:03;;;;;;;6.17;5.57;;;;;;;23.31;57.29;99621.00;4115765;28;20647;-73
2022/06/06 01:24:17;;;;;;;8.03;5.57;;;;;;;23.15;57.67;99617.25;4129469;28;20312;-73
2022/06/06 01:26:35;;;;;;;7.60;5.30;;;;;;;23.73;55.80;99628.75;4137579;28;20241;-73
2022/06/06 01:28:54;;;;;;;8.20;5.33;;;;;;;24.43;54.23;99631.88;4139686;28;20276;-73
2022/06/06 01:30:58;;;;;;;9.50;5.83;;;;;;;23.93;54.95;99632.81;4136983;28;20249;-74
2022/06/06 01:33:02;;;;;;;6.90;5.30;;;;;;;24.28;54.56;99634.41;4130322;28;20726;-74
2022/06/06 01:35:05;;;;;;;6.65;5.35;;;;;;;24.47;53.64;99641.13;4133183;28;20291;-73
2022/06/06 01:37:46;;;;;;;5.80;5.17;;;;;;;23.87;54.39;99647.38;4129060;28;20292;-73
2022/06/06 01:39:47;;;;;;;7.72;5.40;;;;;;;24.12;53.96;99644.19;4125399;28;20313;-73
2022/06/06 01:42:12;;;;;;;6.50;5.53;;;;;;;24.08;54.66;99637.66;4145557;28;20236;-73
2022/06/06 01:44:45;;;;;;;6.30;5.30;;;;;;;24.47;53.95;99626.72;4138911;28;20635;-73
2022/06/06 01:46:48;;;;;;;7.03;5.20;;;;;;;24.00;54.98;99636.16;4127235;28;20241;-73
2022/06/06 01:48:50;;;;;;;8.93;5.77;;;;;;;24.33;54.19;99633.63;4134601;28;20225;-74
2022/06/06 01:50:53;;;;;;;6.10;5.50;;;;;;;24.38;53.62;99634.53;4130567;28;20233;-74
2022/06/06 01:52:59;;;;;;;7.18;5.63;;;;;;;24.34;53.96;99632.56;4129425;28;20256;-74
2022/06/06 01:55:00;;;;;;;6.70;5.50;;;;;;;24.43;53.73;99628.31;4126696;28;20242;-74
2022/06/06 01:57:04;;;;;;;6.47;5.77;;;;;;;24.03;54.37;99626.72;4128968;28;20407;-74
2022/06/06 01:59:06;;;;;;;7.20;6.10;;;;;;;24.36;53.99;99630.41;4134171;28;20233;-74
2022/06/06 02:01:07;;;;;;;7.40;5.72;;;;;;;24.06;54.62;99628.94;4129739;28;20312;-74
2022/06/06 02:03:09;;;;;;;6.87;5.80;;;;;;;24.61;53.13;99622.53;4132944;28;20299;-74
2022/06/06 02:05:13;;;;;;;8.63;5.87;;;;;;;23.76;55.13;99624.72;4130770;28;20799;-74
2022/06/06 02:07:15;;;;;;;6.43;5.18;;;;;;;22.64;57.69;99627.97;4124590;28;20238;-73
2022/06/06 02:09:16;;;;;;;8.60;5.82;;;;;;;23.12;56.07;99623.16;4130243;28;20234;-74
2022/06/06 02:11:19;;;;;;;8.52;5.50;;;;;;;22.67;57.82;99625.84;4132154;28;20258;-73
2022/06/06 02:13:21;;;;;;;9.30;6.50;;;;;;;22.78;57.32;99623.06;4137874;28;20244;-73
2022/06/06 02:15:25;;;;;;;8.40;6.33;;;;;;;23.62;55.56;99610.69;4127257;28;20288;-73
2022/06/06 02:17:26;;;;;;;7.07;5.97;;;;;;;23.94;54.52;99616.28;4132946;28;20329;-74
2022/06/06 02:19:28;;;;;;;7.60;5.50;;;;;;;24.24;53.88;99625.91;4127095;28;20241;-74
2022/06/06 02:21:30;;;;;;;8.23;6.00;;;;;;;24.19;53.95;99628.56;4129964;28;20265;-73
2022/06/06 02:23:32;;;;;;;6.70;5.95;;;;;;;23.99;54.46;99636.41;4131092;28;20697;-73
2022/06/06 02:25:34;;;;;;;8.00;6.23;;;;;;;24.11;53.94;99629.81;4127956;28;20237;-74
2022/06/06 02:27:37;;;;;;;8.30;5.73;;;;;;;24.10;54.15;99624.63;4133776;28;20277;-73
2022/06/06 02:29:39;;;;;;;9.63;6.07;;;;;;;24.28;53.55;99632.50;4124358;28;20241;-73
2022/06/06 02:31:40;;;;;;;11.23;5.93;;;;;;;24.42;53.40;99634.81;4128721;28;20326;-73
2022/06/06 02:33:42;;;;;;;7.33;5.50;;;;;;;24.31;53.46;99629.28;4128225;28;20268;-74
2022/06/06 02:35:44;;;;;;;6.47;5.87;;;;;;;24.49;53.43;99624.56;4119446;28;20230;-73
2022/06/06 02:37:47;;;;;;;7.90;5.93;;;;;;;23.95;54.27;99620.63;4125892;28;20225;-74
2022/06/06 02:39:49;;;;;;;6.90;6.20;;;;;;;24.20;53.79;99618.53;4127588;28;20229;-73
2022/06/06 02:41:50;;;;;;;7.43;5.90;;;;;;;24.08;53.88;99619.44;4130691;28;20233;-73
2022/06/06 02:43:52;;;;;;;8.80;5.70;;;;;;;23.93;54.11;99617.34;4134311;28;20233;-73
2022/06/06 02:45:55;;;;;;;7.63;6.20;;;;;;;24.13;53.47;99626.84;4132998;28;20337;-74
2022/06/06 02:47:58;;;;;;;6.53;5.90;;;;;;;24.34;53.19;99621.69;4131701;28;20312;-73
2022/06/06 02:49:59;;;;;;;6.50;5.90;;;;;;;24.46;53.19;99617.78;4127107;28;20221;-73
2022/06/06 02:52:03;;;;;;;9.43;6.07;;;;;;;24.33;52.60;99630.91;4125726;28;20411;-73
2022/06/06 02:54:04;;;;;;;9.87;6.10;;;;;;;24.27;53.19;99628.13;4129229;28;20811;-74
2022/06/06 02:56:06;;;;;;;6.88;5.70;;;;;;;24.07;53.69;99625.94;4123808;28;20305;-74
2022/06/06 02:58:08;;;;;;;6.60;5.80;;;;;;;23.76;54.64;99625.53;4128780;28;20275;-74
2022/06/06 03:00:13;;;;;;;8.45;6.38;;;;;;;23.65;54.50;99628.34;4129804;28;20305;-73
2022/06/06 03:02:15;;;;;;;7.93;6.40;;;;;;;23.94;53.89;99619.00;4128707;28;20241;-74
2022/06/06 03:04:18;;;;;;;8.20;5.93;;;;;;;23.93;53.62;99628.22;4129296;28;20844;-73
2022/06/06 03:06:39;;;;;;;7.90;6.17;;;;;;;24.42;52.74;99623.97;4132290;28;20291;-74
2022/06/06 03:09:00;;;;;;;7.00;6.13;;;;;;;24.35;53.45;99612.47;4146696;28;20233;-73
2022/06/06 03:11:38;;;;;;;6.53;5.90;;;;;;;24.15;53.87;99615.72;4141561;28;20236;-74
2022/06/06 03:14:08;;;;;;;7.60;5.87;;;;;;;24.26;53.29;99625.66;4144031;28;20322;-74
2022/06/06 03:21:53;;;;;;;8.07;6.30;;;;;;;23.79;54.50;99618.78;4149996;28;20237;-73
2022/06/06 03:24:08;;;;;;;8.07;6.50;;;;;;;23.73;54.96;99617.06;4158960;28;20691;-73
2022/06/06 03:26:50;;;;;;;7.37;6.53;;;;;;;24.20;53.89;99610.38;4143725;28;20240;-73
2022/06/06 03:29:16;;;;;;;7.07;6.37;;;;;;;24.24;53.35;99623.19;4141097;28;20251;-73
2022/06/06 03:32:01;;;;;;;7.90;6.20;;;;;;;24.24;53.44;99616.94;4130956;28;20237;-73
2022/06/06 03:34:11;;;;;;;6.77;6.10;;;;;;;24.39;53.08;99621.75;4114612;28;20272;-73
2022/06/06 03:36:22;;;;;;;7.60;6.40;;;;;;;24.02;53.59;99635.94;4125566;28;20237;-73
2022/06/06 03:38:35;;;;;;;7.40;5.87;;;;;;;24.56;52.85;99624.38;4164190;28;20239;-73
2022/06/06 03:41:03;;;;;;;7.30;6.43;;;;;;;23.72;54.42;99626.28;4126991;28;20292;-72
2022/06/06 03:43:17;;;;;;;9.52;6.40;;;;;;;23.89;54.21;99631.66;4130534;28;20237;-73
2022/06/06 03:45:25;;;;;;;7.63;6.50;;;;;;;24.25;53.27;99627.56;4134816;28;20226;-73
2022/06/06 03:47:55;;;;;;;7.67;6.10;;;;;;;24.19;53.28;99639.44;4125753;28;20244;-73
2022/06/06 03:50:17;;;;;;;7.97;6.27;;;;;;;24.28;53.04;99639.84;4162378;28;20231;-73
2022/06/06 03:52:22;;;;;;;10.20;6.77;;;;;;;23.95;53.80;99641.53;4133939;28;20245;-73
2022/06/06 03:54:55;;;;;;;8.13;5.93;;;;;;;24.43;53.12;99629.16;4168518;28;20303;-73
2022/06/06 03:57:11;;;;;;;8.70;6.43;;;;;;;23.74;54.33;99643.16;4128785;28;20237;-73
2022/06/06 03:59:14;;;;;;;8.50;6.80;;;;;;;24.04;53.53;99639.19;4132182;28;20304;-73
2022/06/06 04:01:20;;;;;;;9.43;6.50;;;;;;;23.99;53.57;99639.97;4129865;28;20288;-72
2022/06/06 04:03:24;;;;;;;7.20;6.50;;;;;;;23.84;53.99;99640.59;4129970;28;20241;-72
2022/06/06 04:05:27;;;;;;;8.53;6.60;;;;;;;23.85;53.77;99638.69;4128223;28;20296;-73
2022/06/06 04:07:31;;;;;;;9.30;7.10;;;;;;;22.02;57.53;99650.25;4133117;28;20334;-72
2022/06/06 04:09:34;;;;;;;7.13;6.17;;;;;;;23.62;54.89;99624.25;4130002;28;20671;-73
2022/06/06 04:11:52;;;;;;;7.30;6.07;;;;;;;22.93;56.15;99636.13;4134534;28;20830;-73
2022/06/06 04:14:14;;;;;;;9.37;6.90;;;;;;;23.42;55.50;99629.31;4125404;28;20233;-72
2022/06/06 04:16:41;;;;;;;8.27;6.33;;;;;;;24.21;53.68;99626.44;4128231;28;20234;-73
2022/06/06 04:18:45;;;;;;;6.93;6.23;;;;;;;24.01;53.62;99637.81;4130741;28;20782;-73
2022/06/06 04:21:10;;;;;;;8.87;6.80;;;;;;;22.52;56.99;99648.03;4129546;28;20241;-73
2022/06/06 04:23:14;;;;;;;9.97;6.40;;;;;;;23.34;55.66;99633.28;4130577;28;20238;-73
2022/06/06 04:25:25;;;;;;;7.13;6.30;;;;;;;23.49;55.65;99633.50;4133533;28;20768;-73
2022/06/06 04:27:26;;;;;;;7.20;6.50;;;;;;;23.30;55.37;99646.50;4132124;28;20664;-73
2022/06/06 04:29:35;;;;;;;10.23;7.30;;;;;;;23.63;55.28;99636.72;4159866;28;20278;-73
2022/06/06 04:31:55;;;;;;;8.27;6.90;;;;;;;23.49;55.50;99643.56;4133258;28;20946;-73
2022/06/06 04:34:21;;;;;;;8.57;6.80;;;;;;;24.26;53.65;99636.53;4134016;28;20606;-73
2022/06/06 04:36:38;;;;;;;8.07;6.30;;;;;;;23.55;54.96;99632.56;4130598;28;20238;-73
2022/06/06 04:39:01;;;;;;;8.53;7.00;;;;;;;23.37;55.31;99641.75;4165511;28;20224;-72
2022/06/06 04:41:27;;;;;;;10.07;7.47;;;;;;;24.75;52.77;99622.97;4134190;28;20462;-73
2022/06/06 04:44:06;;;;;;;8.43;6.77;;;;;;;24.86;52.29;99637.50;4127522;28;20233;-73
2022/06/06 04:46:30;;;;;;;8.00;6.57;;;;;;;24.55;53.12;99639.88;4159994;28;20663;-73
2022/06/06 04:48:35;;;;;;;7.40;6.60;;;;;;;23.54;55.18;99647.16;4150417;28;20244;-73
2022/06/06 04:50:41;;;;;;;7.80;6.50;;;;;;;23.55;55.04;99639.84;4145637;28;20620;-72
2022/06/06 04:52:53;;;;;;;8.20;6.57;;;;;;;24.69;53.03;99634.84;4148597;28;20244;-72
2022/06/06 04:54:56;;;;;;;9.13;6.40;;;;;;;24.72;52.54;99636.25;4135928;28;20717;-73
2022/06/06 04:57:02;;;;;;;8.30;6.83;;;;;;;24.52;53.01;99640.38;4127119;28;20272;-72
2022/06/06 04:59:09;;;;;;;9.33;7.13;;;;;;;24.80;52.52;99646.66;4132580;28;20237;-73
2022/06/06 05:01:12;;;;;;;9.83;7.10;;;;;;;24.04;53.55;99648.19;4130128;28;20250;-72
2022/06/06 05:03:13;;;;;;;9.27;7.13;;;;;;;24.31;53.32;99644.75;4133219;28;20718;-73
2022/06/06 05:05:15;;;;;;;7.45;6.75;;;;;;;24.50;53.15;99634.38;4130941;28;20233;-73
2022/06/06 05:07:48;;;;;;;8.52;7.03;;;;;;;24.90;52.35;99635.91;4136849;28;20248;-72
2022/06/06 05:10:07;;;;;;;6.50;5.77;;;;;;;24.54;52.72;99640.13;4160916;28;20687;-73
2022/06/06 05:12:23;;;;;;;9.53;7.23;;;;;;;24.49;53.10;99641.69;4146130;28;20848;-73
2022/06/06 05:14:56;;;;;;;8.90;6.77;;;;;;;23.46;54.73;99644.84;4143158;28;20287;-73
2022/06/06 05:17:09;;;;;;;8.13;6.80;;;;;;;24.55;52.81;99639.88;4141931;28;20320;-73
2022/06/06 05:19:20;;;;;;;8.73;6.28;;;;;;;24.10;54.20;99639.03;4142781;28;20243;-73
2022/06/06 05:21:46;;;;;;;9.50;6.53;;;;;;;24.39;53.79;99636.16;4152035;28;20724;-73
2022/06/06 05:24:01;;;;;;;8.02;7.13;;;;;;;23.85;54.61;99649.53;4129120;28;20307;-73
2022/06/06 05:26:26;;;;;;;9.30;6.75;;;;;;;21.81;59.09;99659.78;4132650;28;20741;-73
2022/06/06 05:28:43;;;;;;;7.60;6.90;;;;;;;22.45;58.52;99640.88;4128509;28;20268;-73
2022/06/06 05:30:50;;;;;;;9.97;7.00;;;;;;;23.00;56.81;99638.69;4131317;28;20245;-73
2022/06/06 05:33:21;;;;;;;10.40;7.20;;;;;;;23.15;56.64;99644.38;4129621;28;20280;-73
2022/06/06 05:35:35;;;;;;;9.23;6.93;;;;;;;22.81;57.06;99657.00;4127822;28;20292;-73
2022/06/06 05:37:39;;;;;;;8.63;6.83;;;;;;;23.08;56.83;99645.56;4126091;28;20233;-72
2022/06/06 05:39:57;;;;;;;8.53;6.90;;;;;;;23.25;56.11;99651.00;4127978;28;20241;-72
2022/06/06 05:42:07;;;;;;;10.27;7.03;;;;;;;23.29;56.87;99644.06;4127469;28;20292;-73
2022/06/06 05:44:53;;;;;;;8.33;7.10;;;;;;;21.79;59.50;99663.78;4126172;28;20302;-73
2022/06/06 05:47:09;;;;;;;7.87;6.60;;;;;;;22.00;59.68;99660.50;4136720;28;20278;-72
2022/06/06 05:49:32;;;;;;;9.63;7.03;;;;;;;23.99;54.96;99647.28;4141682;28;20241;-73
2022/06/06 05:51:55;;;;;;;7.97;7.17;;;;;;;23.63;55.61;99666.59;4129909;28;20234;-73
2022/06/06 05:54:02;;;;;;;9.70;7.97;;;;;;;23.82;55.61;99677.19;4138583;28;20225;-73
2022/06/06 05:56:18;;;;;;;8.23;7.13;;;;;;;23.97;55.21;99682.03;4126200;28;20246;-73
2022/06/06 05:58:44;;;;;;;10.33;7.70;;;;;;;22.99;56.91;99699.38;4135335;28;20233;-73
2022/06/06 06:00:58;;;;;;;10.07;7.30;;;;;;;22.42;58.04;99706.38;4130561;28;20237;-73
2022/06/06 06:03:19;;;;;;;9.93;7.67;;;;;;;23.57;56.06;99690.13;4133061;28;20242;-73
2022/06/06 06:05:38;;;;;;;8.67;7.77;;;;;;;24.06;54.47;99691.41;4123491;28;20236;-73
2022/06/06 06:08:08;;;;;;;8.80;7.13;;;;;;;23.89;54.96;99703.09;4126795;28;20246;-73
2022/06/06 06:10:26;;;;;;;10.73;7.50;;;;;;;24.08;54.86;99698.22;4131290;28;20233;-73
2022/06/06 06:13:06;;;;;;;9.40;7.67;;;;;;;23.81;55.52;99700.81;4132790;28;20710;-73
2022/06/06 06:15:28;;;;;;;10.60;7.20;;;;;;;22.90;56.89;99712.47;4131722;28;20383;-73
2022/06/06 06:17:32;;;;;;;10.48;7.88;;;;;;;23.42;56.35;99697.13;4129633;28;20236;-73
2022/06/06 06:19:49;;;;;;;9.27;7.28;;;;;;;24.13;55.15;99695.56;4123474;28;20775;-73
2022/06/06 06:21:55;;;;;;;9.63;7.40;;;;;;;24.13;54.68;99692.03;4132440;28;20283;-72
2022/06/06 06:24:09;;;;;;;9.25;6.97;;;;;;;24.25;54.63;99702.81;4122122;28;20225;-72
2022/06/06 06:26:12;;;;;;;7.82;7.03;;;;;;;24.34;54.54;99703.19;4132065;28;20237;-73
2022/06/06 06:28:14;;;;;;;8.50;7.60;;;;;;;23.84;55.02;99705.75;4126060;28;20237;-73
2022/06/06 06:30:16;;;;;;;8.37;6.93;;;;;;;23.34;57.06;99712.75;4135366;28;20632;-73
2022/06/06 06:32:40;;;;;;;10.33;7.20;;;;;;;23.55;56.17;99710.38;4128839;28;20277;-73
2022/06/06 06:35:00;;;;;;;10.57;7.17;;;;;;;24.00;54.65;99714.13;4130088;28;20257;-73
2022/06/06 06:37:26;;;;;;;9.15;7.00;;;;;;;23.67;55.42;99730.19;4132212;28;20298;-73
2022/06/06 06:39:36;;;;;;;8.03;6.17;;;;;;;24.64;53.94;99719.88;4128621;28;20503;-72
2022/06/06 06:41:50;;;;;;;9.33;7.10;;;;;;;24.55;54.06;99729.56;4126984;28;20230;-73
2022/06/06 06:44:08;;;;;;;9.63;7.03;;;;;;;24.95;53.50;99736.59;4142813;28;20224;-73
2022/06/06 06:46:28;;;;;;;9.32;6.35;;;;;;;23.64;55.55;99738.81;4142642;28;20237;-73
2022/06/06 06:48:36;;;;;;;7.70;6.90;;;;;;;23.68;55.20;99739.13;4145769;28;20259;-73
2022/06/06 06:50:53;;;;;;;7.05;6.35;;;;;;;24.36;54.14;99734.47;4144542;28;20295;-73
2022/06/06 06:53:06;;;;;;;10.75;6.38;;;;;;;24.20;54.67;99746.22;4144385;28;20244;-74
2022/06/06 06:55:26;;;;;;;9.18;6.30;;;;;;;24.44;54.13;99744.91;4158557;28;20240;-74
2022/06/06 06:58:04;;;;;;;7.43;6.47;;;;;;;25.11;52.56;99750.38;4155845;28;20232;-74
2022/06/06 07:00:11;;;;;;;7.75;5.60;;;;;;;25.05;52.09;99749.47;4115976;28;20234;-74
2022/06/06 07:10:08;;;;;;;8.57;6.45;;;;;;;24.75;52.28;99752.63;4141554;28;20732;-73
2022/06/06 07:12:22;;;;;;;8.75;6.45;;;;;;;24.12;54.25;99753.66;4133791;28;20265;-73
2022/06/06 07:14:46;;;;;;;8.57;6.45;;;;;;;24.64;52.54;99754.41;4126627;28;20268;-74
2022/06/06 07:16:58;;;;;;;6.88;6.18;;;;;;;24.82;53.05;99751.41;4140740;28;20661;-74
2022/06/06 07:19:08;;;;;;;8.55;6.22;;;;;;;25.18;52.19;99748.25;4132876;28;20243;-74
2022/06/06 07:21:12;;;;;;;7.00;6.30;;;;;;;23.54;54.80;99750.28;4149521;28;20244;-74
2022/06/06 07:23:16;;;;;;;7.53;6.38;;;;;;;24.52;53.28;99740.13;4131506;28;20233;-73
2022/06/06 07:25:18;;;;;;;8.52;6.43;;;;;;;24.38;53.93;99750.53;4133198;28;20222;-73
2022/06/06 07:27:20;;;;;;;8.33;6.37;;;;;;;23.37;55.90;99754.88;4134700;28;20237;-73
2022/06/06 07:29:22;;;;;;;7.40;6.57;;;;;;;23.82;54.24;99745.06;4164050;28;20232;-73
2022/06/06 07:31:36;;;;;;;8.00;6.23;;;;;;;24.58;52.92;99736.38;4134820;28;20294;-74
2022/06/06 07:33:44;;;;;;;7.17;6.47;;;;;;;24.58;53.39;99741.81;4132653;28;20707;-73
2022/06/06 07:36:05;;;;;;;10.13;6.57;;;;;;;24.90;52.44;99752.84;4131826;28;20254;-73
2022/06/06 07:38:18;;;;;;;7.63;6.82;;;;;;;24.59;52.91;99748.91;4134996;28;20303;-72
2022/06/06 07:40:47;;;;;;;7.35;6.53;;;;;;;24.68;53.06;99744.66;4129752;28;20301;-74
2022/06/06 07:43:07;;;;;;;7.40;6.57;;;;;;;23.76;54.74;99749.59;4146415;28;20221;-74
2022/06/06 07:45:27;;;;;;;7.70;6.03;;;;;;;24.86;52.02;99743.56;4147720;28;20239;-74
2022/06/06 07:47:32;;;;;;;6.25;5.65;;;;;;;24.88;52.12;99744.13;4150768;28;20241;-73
2022/06/06 07:49:47;;;;;;;6.90;6.18;;;;;;;24.66;51.84;99750.34;4148657;28;20302;-74
2022/06/06 07:51:59;;;;;;;8.40;7.30;;;;;;;23.78;54.06;99746.63;4151098;28;20224;-74
2022/06/06 07:54:25;;;;;;;8.88;5.75;;;;;;;23.60;54.02;99721.34;4148077;28;20261;-73
2022/06/06 07:56:32;;;;;;;6.65;6.05;;;;;;;24.31;53.36;99713.50;4147953;28;20290;-73
2022/06/06 07:58:51;;;;;;;9.02;6.05;;;;;;;24.44;52.34;99719.63;4149581;28;20247;-73
2022/06/06 08:01:21;;;;;;;7.65;5.38;;;;;;;24.72;51.80;99724.06;4145055;28;20239;-74
2022/06/06 08:03:37;;;;;;;8.70;4.90;;;;;;;23.59;54.13;99714.31;4148800;28;20237;-73
2022/06/06 08:05:59;;;;;;;5.13;4.63;;;;;;;24.74;51.80;99716.47;4146205;28;20740;-73
2022/06/06 08:08:35;;;;;;;6.32;5.30;;;;;;;24.76;51.20;99710.78;4155518;28;20283;-73
2022/06/06 08:10:42;;;;;;;8.93;5.40;;;;;;;24.98;51.01;99706.16;4139710;28;20226;-73
2022/06/06 08:13:15;;;;;;;6.50;5.05;;;;;;;25.33;49.79;99704.84;4129888;28;20722;-73
2022/06/06 08:15:23;;;;;;;9.32;5.43;;;;;;;23.97;52.72;99692.88;4131317;28;20242;-73
2022/06/06 08:17:35;;;;;;;6.60;5.85;;;;;;;25.14;50.67;99695.41;4134436;28;20242;-74
2022/06/06 08:19:47;;;;;;;8.40;5.93;;;;;;;25.26;51.13;99703.44;4127338;28;20292;-74
2022/06/06 08:21:50;;;;;;;6.75;5.90;;;;;;;24.96;51.36;99702.06;4133421;28;20426;-73
2022/06/06 08:23:55;;;;;;;8.88;5.75;;;;;;;25.49;50.75;99685.97;4132987;28;20480;-73
2022/06/06 08:25:57;;;;;;;5.32;4.40;;;;;;;25.28;50.70;99706.72;4139218;28;20313;-73
2022/06/06 08:28:01;;;;;;;7.15;4.70;;;;;;;24.85;50.99;99691.06;4143971;28;20237;-73
2022/06/06 08:30:04;;;;;;;5.20;4.70;;;;;;;23.95;51.97;99688.50;4129960;28;20244;-73
2022/06/06 08:32:07;;;;;;;5.78;4.93;;;;;;;24.26;51.43;99693.56;4130202;28;20296;-73
2022/06/06 08:34:08;;;;;;;6.22;4.95;;;;;;;24.60;51.77;99680.69;4134133;28;20307;-73
2022/06/06 08:36:31;;;;;;;5.75;5.20;;;;;;;25.05;50.14;99679.59;4129627;28;20229;-72
2022/06/06 08:38:35;;;;;;;5.95;4.47;;;;;;;23.63;51.35;99687.50;4165584;28;20228;-73
2022/06/06 08:41:03;;;;;;;4.93;4.47;;;;;;;24.46;50.87;99671.28;4128822;28;20654;-72
2022/06/06 08:43:22;;;;;;;8.73;5.18;;;;;;;24.00;50.74;99692.38;4130355;28;20632;-72
2022/06/06 08:45:35;;;;;;;6.82;5.43;;;;;;;24.43;51.39;99679.94;4136362;28;20718;-73
2022/06/06 08:47:49;;;;;;;7.90;4.93;;;;;;;25.79;49.70;99682.66;4144744;28;20663;-73
2022/06/06 08:52:48;;;;;;;5.70;5.07;;;;;;;24.96;50.35;99675.66;4128534;28;20377;-73
2022/06/06 08:55:18;;;;;;;6.78;5.45;;;;;;;24.99;50.27;99672.44;4135635;28;20229;-72
2022/06/06 08:57:57;;;;;;;5.55;4.72;;;;;;;26.45;48.14;99665.84;4135714;28;20233;-73
2022/06/06 09:00:05;;;;;;;6.30;4.60;;;;;;;26.09;48.54;99679.31;4149091;28;20229;-73
2022/06/06 09:02:25;;;;;;;5.90;4.78;;;;;;;24.89;49.30;99668.81;4129279;28;20308;-72
2022/06/06 09:04:48;;;;;;;8.02;5.15;;;;;;;24.33;50.90;99677.09;4130840;28;20236;-72
2022/06/06 09:07:08;;;;;;;7.68;5.05;;;;;;;23.58;51.42;99664.59;4135574;28;20686;-72
2022/06/06 09:09:37;;;;;;;6.93;5.22;;;;;;;24.33;49.97;99658.06;4142774;28;20299;-73
2022/06/06 09:11:41;;;;;;;7.35;4.53;;;;;;;25.49;48.63;99650.59;4137418;28;20231;-72
2022/06/06 09:14:28;;;;;;;6.53;4.25;;;;;;;25.53;47.66;99665.31;4128801;28;20230;-72
2022/06/06 09:17:04;;;;;;;5.43;3.75;;;;;;;25.95;47.33;99665.34;4124511;28;20687;-72
2022/06/06 09:19:08;;;;;;;4.30;3.60;;;;;;;25.41;47.32;99663.59;4164165;28;20227;-72
2022/06/06 09:21:39;;;;;;;5.95;4.22;;;;;;;24.57;49.01;99662.19;4131130;28;20316;-72
2022/06/06 09:24:04;;;;;;;5.38;4.22;;;;;;;24.40;49.67;99659.53;4126369;28;20304;-73
2022/06/06 09:26:12;;;;;;;5.22;4.13;;;;;;;24.77;49.85;99664.34;4117485;28;20234;-72
2022/06/06 09:28:41;;;;;;;4.55;4.05;;;;;;;25.82;48.19;99660.34;4131845;28;20232;-72
2022/06/06 09:31:07;;;;;;;6.55;4.60;;;;;;;25.37;50.07;99684.25;4139060;28;20320;-73
2022/06/06 09:33:28;;;;;;;10.90;5.50;;;;;;;24.50;53.17;99675.97;4128052;28;20296;-73
2022/06/06 09:35:53;;;;;;;8.13;5.00;;;;;;;23.84;54.74;99666.88;4130551;28;20798;-73
2022/06/06 09:38:12;;;;;;;10.20;5.35;;;;;;;25.30;51.74;99661.03;4132321;28;20229;-73
2022/06/06 09:40:23;;;;;;;6.68;5.07;;;;;;;25.46;51.05;99659.25;4132327;28;20238;-73
2022/06/06 09:42:40;;;;;;;10.38;4.85;;;;;;;25.63;50.91;99661.84;4131965;28;20368;-73
2022/06/06 09:45:08;;;;;;;7.65;5.05;;;;;;;24.88;52.40;99661.72;4106603;28;20229;-73
2022/06/06 09:47:41;;;;;;;6.40;5.00;;;;;;;24.15;54.06;99642.88;4160780;28;20245;-73
2022/06/06 09:50:23;;;;;;;11.15;5.05;;;;;;;24.44;53.48;99632.66;4146046;28;20290;-74
2022/06/06 09:52:33;;;;;;;6.55;5.57;;;;;;;25.43;51.76;99630.69;4148558;28;20229;-73
2022/06/06 10:00:17;;;;;;;9.80;5.40;;;;;;;26.18;51.93;99627.84;4144408;28;20312;-73
2022/06/06 10:02:55;;;;;;;6.70;5.30;;;;;;;25.82;54.06;99624.13;4150352;28;20908;-73
2022/06/06 10:05:21;;;;;;;5.97;5.13;;;;;;;25.69;53.17;99620.75;4144352;28;20246;-73
2022/06/06 10:07:44;;;;;;;6.03;4.60;;;;;;;25.89;53.88;99624.72;4160475;28;20600;-74
2022/06/06 10:09:58;;;;;;;5.20;4.47;;;;;;;25.65;53.84;99622.38;4162928;28;21196;-73
2022/06/06 10:12:58;;;;;;;5.05;4.03;;;;;;;24.89;54.72;99631.56;4145168;28;20296;-73
2022/06/06 10:15:11;;;;;;;4.85;3.90;;;;;;;25.40;54.00;99602.06;4105170;28;20720;-74
2022/06/06 10:17:28;;;;;;;4.93;3.90;;;;;;;25.98;52.38;99612.25;4128931;28;20308;-74
2022/06/06 10:19:51;;;;;;;5.07;3.92;;;;;;;25.87;52.33;99615.97;4155233;28;20265;-74
2022/06/06 10:22:37;;;;;;;4.88;3.75;;;;;;;25.94;50.98;99613.88;4159567;28;20762;-74
2022/06/06 10:24:55;;;;;;;5.05;4.00;;;;;;;25.81;51.44;99606.94;4103425;28;20227;-74
2022/06/06 10:27:20;;;;;;;5.78;3.55;;;;;;;26.38;50.65;99615.41;4135291;28;20255;-74
2022/06/06 10:32:18;;;;;;;5.90;3.88;;;;;;;25.82;51.99;99602.34;4141386;28;20315;-74
2022/06/06 10:34:56;;;;;;;4.20;3.80;;;;;;;25.34;50.87;99599.53;4145047;28;20331;-73
2022/06/06 10:37:43;;;;;;;5.03;3.70;;;;;;;26.48;50.12;99599.06;4124804;28;20294;-74
2022/06/06 10:40:00;;;;;;;4.78;3.75;;;;;;;26.57;50.29;99596.66;4137725;28;20229;-74
2022/06/06 10:42:11;;;;;;;5.15;4.07;;;;;;;26.03;49.95;99606.84;4141196;28;20229;-73
2022/06/06 10:44:50;;;;;;;5.07;3.88;;;;;;;26.75;48.15;99609.78;4137565;28;20239;-73
2022/06/06 10:47:13;;;;;;;6.07;4.00;;;;;;;26.02;48.97;99632.44;4151898;28;20255;-73
2022/06/06 10:49:27;;;;;;;4.68;4.10;;;;;;;25.91;48.75;99633.44;4126520;28;20242;-73
2022/06/06 10:51:41;;;;;;;4.80;3.80;;;;;;;26.14;48.65;99610.41;4130686;28;20237;-73
2022/06/06 10:54:24;;;;;;;6.82;4.72;;;;;;;25.69;47.94;99609.88;4121477;28;20234;-73
2022/06/06 10:57:03;;;;;;;5.35;4.75;;;;;;;25.82;48.26;99618.69;4132106;28;20245;-73